首页
METAR-TAF:

METAR-TAF

机场 :

盧加諾, 瑞士

纬度: 46-00N, 经度: 008-58E, 海拔: 273米

当前天气观测

该预报发布于15分钟前的07:20 UTC
风速4节,风向
温度 3°C
湿度 93%
气压 1026 hPa
能見度: 4000
多云层高于5700英尺
轻雾

METAR: LSZA 170720Z 01004KT 4000 BR BKN057 03/02 Q1026 NOSIG

时间: 08:35 (07:35 UTC)

预报

该预报发布于1小时和27分钟前的06:08 UTC
预报有效从17日的 06点(UTC)到 17日的 15点(UTC)
风速3节,风向多变
能見度: 5000
多云层高于5500英尺
轻雾
几率 40% :
短暂存在
从 17日的 07点(UTC)到 17日的 09点(UTC)
能見度: 4000

TAF: LSZA 170608Z 1706/1715 VRB03KT 5000 BR BKN055 PROB40 TEMPO 1707/1709 4000

超过4000个机场的气象观测和天气预报(METAR&TAF报告)。

可查询的气象台以黄色和红色小点在地图上表示。

将鼠标移到小点上方,可查看气象台名称。

然后点击查看天气观测和预报。

如需切换地图:点击带黑十字的绿色按钮放大地图;点击带横线的绿色按钮缩小地图;或者点击绿色箭头查看邻近地区的地图。


METAR-TAF: